createdAt,value
2023-05-07T00:04:37.899Z,62.78
2023-05-07T00:09:42.062Z,62.76
2023-05-07T00:14:46.966Z,62.39
2023-05-07T00:19:51.634Z,61.58
2023-05-07T00:24:55.608Z,60.77
2023-05-07T00:29:59.463Z,60.36
2023-05-07T00:35:03.632Z,59.77
2023-05-07T00:40:09.819Z,59.45
2023-05-07T00:45:15.042Z,59.45
2023-05-07T00:50:20.760Z,58.72
2023-05-07T00:55:25.888Z,58.25
2023-05-07T01:00:29.871Z,57.04
2023-05-07T01:05:34.476Z,56.15
2023-05-07T01:10:38.788Z,55.38
2023-05-07T01:15:42.993Z,54.48
2023-05-07T01:20:47.436Z,53.90
2023-05-07T01:25:56.062Z,52.44
2023-05-07T01:31:05.826Z,51.61
2023-05-07T01:36:13.652Z,50.89
2023-05-07T01:41:17.679Z,49.85
2023-05-07T01:46:22.242Z,48.65
2023-05-07T01:51:26.709Z,47.59
2023-05-07T01:56:30.545Z,46.53
2023-05-07T02:01:34.922Z,45.58
2023-05-07T02:06:38.929Z,43.98
2023-05-07T02:11:44.880Z,43.18
2023-05-07T02:16:49.987Z,41.91
2023-05-07T02:21:54.772Z,41.35
2023-05-07T02:26:58.712Z,40.52
2023-05-07T02:32:03.040Z,39.94
2023-05-07T02:37:07.212Z,39.24
2023-05-07T02:42:11.358Z,38.37
2023-05-07T02:47:17.115Z,38.31
2023-05-07T02:52:22.463Z,37.48
2023-05-07T02:57:26.610Z,36.90
2023-05-07T03:02:32.982Z,36.50
2023-05-07T03:07:38.279Z,35.84
2023-05-07T03:12:42.445Z,35.45
2023-05-07T03:17:48.733Z,34.78
2023-05-07T03:22:52.690Z,34.51
2023-05-07T03:27:56.755Z,33.96
2023-05-07T03:33:05.288Z,33.57
2023-05-07T03:38:09.790Z,33.00
2023-05-07T03:43:15.072Z,32.57
2023-05-07T03:48:24.039Z,32.10
2023-05-07T03:53:29.801Z,30.96
2023-05-07T03:58:33.987Z,30.77
2023-05-07T04:03:43.490Z,29.78
2023-05-07T04:08:47.628Z,29.66
2023-05-07T04:13:52.043Z,29.25
2023-05-07T04:18:59.674Z,27.45
2023-05-07T04:24:05.959Z,26.81
2023-05-07T04:29:10.258Z,26.56
2023-05-07T04:34:14.713Z,26.61
2023-05-07T04:39:19.511Z,26.22
2023-05-07T04:44:26.746Z,25.82
2023-05-07T04:49:31.703Z,25.65
2023-05-07T04:54:37.289Z,25.23
2023-05-07T04:59:42.255Z,25.41
2023-05-07T05:04:46.801Z,25.55
2023-05-07T05:09:50.949Z,24.24
2023-05-07T05:14:55.532Z,24.85
2023-05-07T05:19:59.474Z,24.27
2023-05-07T05:25:03.776Z,23.86
2023-05-07T05:30:08.652Z,23.06
2023-05-07T05:35:13.964Z,23.26
2023-05-07T05:40:19.267Z,22.36
2023-05-07T05:45:24.277Z,23.36
2023-05-07T05:50:28.180Z,22.93
2023-05-07T05:55:34.490Z,22.29
2023-05-07T06:00:38.591Z,22.69
2023-05-07T06:05:44.288Z,22.53
2023-05-07T06:10:49.074Z,23.13
2023-05-07T06:15:53.278Z,22.30
2023-05-07T06:20:57.329Z,22.86
2023-05-07T06:26:05.271Z,22.57
2023-05-07T06:31:22.159Z,22.68
2023-05-07T06:36:34.266Z,22.22
2023-05-07T06:41:42.841Z,21.18
2023-05-07T06:46:58.681Z,21.75
2023-05-07T06:52:02.710Z,21.45
2023-05-07T06:57:07.518Z,20.57
2023-05-07T07:02:11.396Z,19.81
2023-05-07T07:07:16.286Z,20.02
2023-05-07T07:12:24.571Z,19.97
2023-05-07T07:17:28.723Z,19.11
2023-05-07T07:22:32.866Z,19.73
2023-05-07T07:27:38.681Z,20.08
2023-05-07T07:32:42.859Z,19.48
2023-05-07T07:37:46.898Z,19.53
2023-05-07T07:42:52.344Z,19.96
2023-05-07T07:47:56.710Z,19.97
2023-05-07T07:53:02.079Z,19.65
2023-05-07T07:58:07.176Z,19.26
2023-05-07T08:03:12.653Z,18.45
2023-05-07T08:08:22.091Z,18.89
2023-05-07T08:13:26.894Z,19.10
2023-05-07T08:18:31.656Z,19.14
2023-05-07T08:23:38.644Z,18.50
2023-05-07T08:28:43.022Z,19.01
2023-05-07T08:33:47.453Z,19.44
2023-05-07T08:38:51.663Z,18.85
2023-05-07T08:43:59.761Z,19.13
2023-05-07T08:49:04.763Z,19.54
2023-05-07T08:54:09.269Z,20.01
2023-05-07T08:59:13.708Z,19.97
2023-05-07T09:04:19.198Z,19.95
2023-05-07T09:09:24.595Z,19.53
2023-05-07T09:14:35.082Z,19.58
2023-05-07T09:19:40.323Z,19.79
2023-05-07T09:24:50.701Z,19.39
2023-05-07T09:29:57.692Z,18.84
2023-05-07T09:35:01.588Z,18.36
2023-05-07T09:40:08.547Z,18.96
2023-05-07T09:45:13.032Z,19.02
2023-05-07T09:50:21.669Z,19.07
2023-05-07T09:55:26.283Z,19.79
2023-05-07T10:00:32.301Z,19.58
2023-05-07T10:05:46.494Z,19.58
2023-05-07T10:10:51.877Z,19.29
2023-05-07T10:16:00.374Z,19.16
2023-05-07T10:21:23.549Z,19.33
2023-05-07T10:26:33.049Z,19.40
2023-05-07T10:32:14.601Z,19.77
2023-05-07T10:37:19.992Z,19.15
2023-05-07T10:42:24.277Z,19.49
2023-05-07T10:47:31.274Z,19.71
2023-05-07T10:52:38.726Z,19.76
2023-05-07T10:57:51.277Z,19.96
2023-05-07T11:03:09.041Z,19.72
2023-05-07T11:08:19.857Z,19.77
2023-05-07T11:13:48.577Z,19.54
2023-05-07T11:19:57.026Z,19.84
2023-05-07T11:25:10.894Z,19.87
2023-05-07T11:30:22.713Z,20.04
2023-05-07T11:35:28.199Z,20.33
2023-05-07T11:40:32.819Z,20.06
2023-05-07T11:45:37.044Z,19.72
2023-05-07T11:51:02.123Z,19.73
2023-05-07T11:56:17.154Z,20.11
2023-05-07T12:01:21.216Z,20.15
2023-05-07T12:06:25.190Z,20.13
2023-05-07T12:11:29.060Z,20.26
2023-05-07T12:16:33.669Z,20.39
2023-05-07T12:21:37.966Z,20.16
2023-05-07T12:26:42.746Z,20.43
2023-05-07T12:31:46.896Z,21.39
2023-05-07T12:36:50.924Z,20.99
2023-05-07T12:42:03.204Z,21.17
2023-05-07T12:47:07.227Z,21.49
2023-05-07T12:52:13.448Z,21.35
2023-05-07T12:57:22.648Z,22.13
2023-05-07T13:02:36.385Z,23.60
2023-05-07T13:07:42.272Z,23.74
2023-05-07T13:12:46.758Z,24.73
2023-05-07T13:17:50.837Z,25.77
2023-05-07T13:22:55.082Z,26.58
2023-05-07T13:28:09.511Z,27.64
2023-05-07T13:33:16.039Z,28.67
2023-05-07T13:38:20.006Z,31.27
2023-05-07T13:43:24.132Z,32.79
2023-05-07T13:48:28.155Z,33.82
2023-05-07T13:53:32.312Z,33.58
2023-05-07T13:58:44.866Z,34.42
2023-05-07T14:03:57.812Z,34.90
2023-05-07T14:09:01.920Z,35.73
2023-05-07T14:14:05.830Z,37.44
2023-05-07T14:19:09.765Z,39.38
2023-05-07T14:24:15.821Z,39.87
2023-05-07T14:29:26.329Z,39.22
2023-05-07T14:34:30.360Z,38.90
2023-05-07T14:39:34.509Z,39.14
2023-05-07T14:44:38.306Z,39.46
2023-05-07T14:49:45.232Z,40.93
2023-05-07T14:54:49.257Z,41.97
2023-05-07T14:59:53.380Z,43.28
2023-05-07T15:04:57.459Z,43.74
2023-05-07T15:10:01.444Z,43.42
2023-05-07T15:15:08.168Z,44.14
2023-05-07T15:20:12.226Z,44.99
2023-05-07T15:25:16.957Z,45.22
2023-05-07T15:30:22.585Z,45.02
2023-05-07T15:35:27.533Z,45.64
2023-05-07T15:40:34.133Z,46.26
2023-05-07T15:45:43.325Z,47.00
2023-05-07T15:50:47.465Z,46.93
2023-05-07T15:55:51.491Z,47.50
2023-05-07T16:00:55.461Z,47.71
2023-05-07T16:06:01.648Z,48.40
2023-05-07T16:11:05.707Z,48.76
2023-05-07T16:16:09.658Z,49.24
2023-05-07T16:21:13.783Z,49.70
2023-05-07T16:26:18.741Z,49.66
2023-05-07T16:31:22.713Z,50.18
2023-05-07T16:36:32.654Z,50.70
2023-05-07T16:41:37.134Z,50.64
2023-05-07T16:46:41.253Z,49.54
2023-05-07T16:51:47.103Z,49.34
2023-05-07T16:56:51.476Z,50.12
2023-05-07T17:01:56.984Z,51.32
2023-05-07T17:07:01.834Z,52.23
2023-05-07T17:12:06.589Z,52.55
2023-05-07T17:17:10.515Z,52.91
2023-05-07T17:22:14.452Z,53.68
2023-05-07T17:27:18.470Z,53.62
2023-05-07T17:32:22.824Z,53.71
2023-05-07T17:37:27.613Z,54.02
2023-05-07T17:42:32.625Z,54.21
2023-05-07T17:47:36.904Z,55.08
2023-05-07T17:52:42.642Z,55.21
2023-05-07T17:57:46.564Z,54.86
2023-05-07T18:02:53.311Z,55.04
2023-05-07T18:07:57.706Z,55.11
2023-05-07T18:13:01.787Z,55.35
2023-05-07T18:18:06.492Z,55.60
2023-05-07T18:23:10.335Z,55.61
2023-05-07T18:28:14.358Z,55.79
2023-05-07T18:33:18.454Z,55.90
2023-05-07T18:38:22.377Z,55.91
2023-05-07T18:43:26.520Z,56.05
2023-05-07T18:48:30.308Z,56.06
2023-05-07T18:53:34.314Z,55.95
2023-05-07T18:58:38.368Z,56.33
2023-05-07T19:03:42.379Z,56.14
2023-05-07T19:08:46.424Z,56.54
2023-05-07T19:13:50.825Z,56.40
2023-05-07T19:18:54.890Z,57.75
2023-05-07T19:23:59.015Z,57.39
2023-05-07T19:29:16.652Z,58.48
2023-05-07T19:34:22.018Z,58.81
2023-05-07T19:39:26.332Z,58.64
2023-05-07T19:44:30.306Z,59.65
2023-05-07T19:49:34.324Z,59.52
2023-05-07T19:54:38.332Z,60.38
2023-05-07T19:59:42.117Z,59.82
2023-05-07T20:04:46.307Z,60.18
2023-05-07T20:09:50.390Z,59.91
2023-05-07T20:14:54.614Z,60.26
2023-05-07T20:19:58.692Z,60.59
2023-05-07T20:25:06.946Z,60.81
2023-05-07T20:30:11.704Z,60.41
2023-05-07T20:35:16.062Z,60.19
2023-05-07T20:40:20.148Z,60.42
2023-05-07T20:45:24.176Z,60.82
2023-05-07T20:50:28.540Z,61.70
2023-05-07T20:55:32.386Z,61.53
2023-05-07T21:00:36.648Z,61.73
2023-05-07T21:05:40.473Z,61.88
2023-05-07T21:10:44.823Z,62.12
2023-05-07T21:15:49.037Z,62.81
2023-05-07T21:20:52.851Z,62.29
2023-05-07T21:25:56.683Z,63.14
2023-05-07T21:31:00.473Z,63.15
2023-05-07T21:36:04.801Z,62.75
2023-05-07T21:41:08.872Z,63.07
2023-05-07T21:46:12.762Z,63.21
2023-05-07T21:51:16.994Z,62.67
2023-05-07T21:56:20.802Z,63.09
2023-05-07T22:01:24.909Z,63.46
2023-05-07T22:06:28.983Z,63.66
2023-05-07T22:11:32.964Z,63.96
2023-05-07T22:16:37.287Z,64.05
2023-05-07T22:21:41.806Z,63.97
2023-05-07T22:26:46.075Z,63.32
2023-05-07T22:32:30.370Z,64.11
2023-05-07T22:37:34.211Z,64.35
2023-05-07T22:42:38.271Z,64.51
2023-05-07T22:47:42.173Z,64.78
2023-05-07T22:52:46.116Z,63.86
2023-05-07T22:57:50.007Z,64.01
2023-05-07T23:02:54.087Z,64.40
2023-05-07T23:07:59.186Z,64.24
2023-05-07T23:13:03.413Z,64.08
2023-05-07T23:18:07.803Z,64.90
2023-05-07T23:23:12.050Z,64.90
2023-05-07T23:28:16.195Z,64.13
2023-05-07T23:33:20.265Z,63.99
2023-05-07T23:38:24.456Z,63.58
2023-05-07T23:43:28.482Z,64.04
2023-05-07T23:48:32.218Z,63.73
2023-05-07T23:53:36.869Z,63.47
2023-05-07T23:58:40.627Z,63.04
